createdAt,value
2023-02-26T00:02:38.629Z,100050.09
2023-02-26T00:05:40.310Z,100051.56
2023-02-26T00:08:42.200Z,100051.97
2023-02-26T00:11:44.371Z,100046.19
2023-02-26T00:14:51.250Z,100056.44
2023-02-26T00:17:59.437Z,100060.81
2023-02-26T00:21:01.862Z,100063.03
2023-02-26T00:24:04.038Z,100057.97
2023-02-26T00:27:05.750Z,100067.69
2023-02-26T00:30:10.561Z,100070.41
2023-02-26T00:33:13.017Z,100071.53
2023-02-26T00:36:22.476Z,100074.69
2023-02-26T00:39:36.946Z,100072.00
2023-02-26T00:42:39.346Z,100067.59
2023-02-26T00:45:47.879Z,100073.13
2023-02-26T00:48:57.968Z,100064.41
2023-02-26T00:52:05.075Z,100069.06
2023-02-26T00:55:08.193Z,100071.34
2023-02-26T00:58:10.147Z,100065.69
2023-02-26T01:01:13.740Z,100070.44
2023-02-26T01:04:17.334Z,100068.25
2023-02-26T01:07:23.912Z,100068.97
2023-02-26T01:10:26.932Z,100070.97
2023-02-26T01:13:29.363Z,100070.41
2023-02-26T01:16:38.450Z,100075.19
2023-02-26T01:19:44.178Z,100081.34
2023-02-26T01:22:52.281Z,100080.31
2023-02-26T01:25:57.797Z,100083.44
2023-02-26T01:28:59.812Z,100080.09
2023-02-26T01:32:08.810Z,100077.56
2023-02-26T01:35:31.400Z,100083.31
2023-02-26T01:38:41.727Z,100078.50
2023-02-26T01:41:47.332Z,100084.03
2023-02-26T01:44:55.050Z,100078.56
2023-02-26T01:48:04.490Z,100081.59
2023-02-26T01:51:06.235Z,100081.13
2023-02-26T01:54:08.389Z,100083.59
2023-02-26T01:57:15.068Z,100091.13
2023-02-26T02:00:18.196Z,100078.97
2023-02-26T02:03:24.575Z,100070.75
2023-02-26T02:06:29.804Z,100072.19
2023-02-26T02:09:31.812Z,100079.50
2023-02-26T02:12:40.292Z,100072.41
2023-02-26T02:15:51.208Z,100082.63
2023-02-26T02:19:03.214Z,100088.19
2023-02-26T02:22:33.970Z,100079.09
2023-02-26T02:25:57.403Z,100085.59
2023-02-26T02:29:21.963Z,100082.50
2023-02-26T02:32:30.983Z,100088.91
2023-02-26T02:35:38.925Z,100091.28
2023-02-26T02:38:47.596Z,100089.63
2023-02-26T02:41:53.404Z,100095.41
2023-02-26T02:45:02.889Z,100094.44
2023-02-26T02:48:12.452Z,100104.16
2023-02-26T02:51:19.806Z,100107.84
2023-02-26T02:54:30.034Z,100109.59
2023-02-26T02:57:37.271Z,100111.06
2023-02-26T03:00:43.548Z,100103.66
2023-02-26T03:03:52.053Z,100105.97
2023-02-26T03:06:53.732Z,100111.03
2023-02-26T03:09:55.515Z,100107.84
2023-02-26T03:12:57.255Z,100108.47
2023-02-26T03:16:13.205Z,100101.44
2023-02-26T03:19:23.872Z,100116.19
2023-02-26T03:22:34.922Z,100121.38
2023-02-26T03:25:47.812Z,100110.97
2023-02-26T03:28:54.426Z,100120.63
2023-02-26T03:31:59.244Z,100112.59
2023-02-26T03:35:09.274Z,100121.53
2023-02-26T03:38:17.971Z,100124.56
2023-02-26T03:41:24.883Z,100121.22
2023-02-26T03:44:31.082Z,100124.44
2023-02-26T03:47:34.919Z,100128.66
2023-02-26T03:50:43.012Z,100123.16
2023-02-26T03:54:21.983Z,100134.50
2023-02-26T03:57:33.448Z,100139.19
2023-02-26T04:01:01.262Z,100155.72
2023-02-26T04:04:07.903Z,100159.66
2023-02-26T04:07:15.920Z,100164.16
2023-02-26T04:10:24.093Z,100166.72
2023-02-26T04:13:26.096Z,100164.84
2023-02-26T04:16:28.499Z,100166.22
2023-02-26T04:19:30.455Z,100174.66
2023-02-26T04:22:34.107Z,100175.06
2023-02-26T04:25:36.432Z,100174.53
2023-02-26T04:28:39.270Z,100186.25
2023-02-26T04:31:41.963Z,100188.75
2023-02-26T04:34:44.158Z,100188.41
2023-02-26T04:37:47.586Z,100190.41
2023-02-26T04:40:49.858Z,100189.81
2023-02-26T04:43:51.785Z,100183.16
2023-02-26T04:47:00.781Z,100197.88
2023-02-26T04:50:03.067Z,100204.50
2023-02-26T04:53:07.197Z,100204.50
2023-02-26T04:56:14.006Z,100206.94
2023-02-26T04:59:15.805Z,100210.16
2023-02-26T05:02:17.598Z,100213.00
2023-02-26T05:05:23.486Z,100219.38
2023-02-26T05:08:26.549Z,100218.63
2023-02-26T05:11:29.456Z,100213.19
2023-02-26T05:14:32.271Z,100221.63
2023-02-26T05:17:35.250Z,100231.78
2023-02-26T05:20:37.010Z,100233.06
2023-02-26T05:23:42.016Z,100242.38
2023-02-26T05:26:43.682Z,100238.94
2023-02-26T05:29:45.693Z,100238.63
2023-02-26T05:32:49.526Z,100236.00
2023-02-26T05:35:51.407Z,100240.84
2023-02-26T05:38:54.420Z,100255.25
2023-02-26T05:41:56.976Z,100259.25
2023-02-26T05:44:58.685Z,100260.69
2023-02-26T05:48:01.126Z,100268.03
2023-02-26T05:51:03.295Z,100265.84
2023-02-26T05:54:06.408Z,100272.91
2023-02-26T05:57:08.172Z,100276.09
2023-02-26T06:00:11.964Z,100272.75
2023-02-26T06:03:16.321Z,100270.88
2023-02-26T06:06:18.523Z,100285.75
2023-02-26T06:09:21.801Z,100293.22
2023-02-26T06:12:23.599Z,100293.63
2023-02-26T06:15:25.389Z,100287.53
2023-02-26T06:18:27.346Z,100301.06
2023-02-26T06:21:29.828Z,100303.66
2023-02-26T06:24:32.853Z,100309.50
2023-02-26T06:27:34.685Z,100311.38
2023-02-26T06:30:37.623Z,100316.59
2023-02-26T06:33:39.577Z,100327.81
2023-02-26T06:36:41.491Z,100335.69
2023-02-26T06:39:44.619Z,100339.91
2023-02-26T06:42:46.407Z,100345.19
2023-02-26T06:45:48.274Z,100347.28
2023-02-26T06:48:52.113Z,100359.63
2023-02-26T06:51:53.928Z,100363.63
2023-02-26T06:54:57.173Z,100372.56
2023-02-26T06:57:59.179Z,100380.22
2023-02-26T07:01:06.513Z,100382.84
2023-02-26T07:04:08.471Z,100389.13
2023-02-26T07:07:11.216Z,100391.19
2023-02-26T07:10:14.284Z,100396.78
2023-02-26T07:13:16.498Z,100393.78
2023-02-26T07:16:18.556Z,100394.63
2023-02-26T07:19:20.856Z,100402.63
2023-02-26T07:22:22.799Z,100406.75
2023-02-26T07:25:25.945Z,100412.38
2023-02-26T07:28:28.195Z,100418.44
2023-02-26T07:31:29.970Z,100423.66
2023-02-26T07:34:32.255Z,100430.16
2023-02-26T07:37:33.986Z,100434.31
2023-02-26T07:40:37.902Z,100437.47
2023-02-26T07:43:39.777Z,100435.78
2023-02-26T07:46:41.610Z,100441.72
2023-02-26T07:49:43.367Z,100452.41
2023-02-26T07:52:46.234Z,100452.19
2023-02-26T07:55:49.714Z,100454.56
2023-02-26T07:58:51.718Z,100460.16
2023-02-26T08:01:53.841Z,100468.00
2023-02-26T08:04:55.638Z,100469.97
2023-02-26T08:07:57.564Z,100467.56
2023-02-26T08:11:01.289Z,100465.34
2023-02-26T08:14:02.981Z,100475.97
2023-02-26T08:17:04.734Z,100474.88
2023-02-26T08:20:08.079Z,100472.31
2023-02-26T08:23:10.155Z,100473.56
2023-02-26T08:26:14.736Z,100480.47
2023-02-26T08:29:16.706Z,100473.53
2023-02-26T08:32:20.100Z,100465.06
2023-02-26T08:35:22.169Z,100472.81
2023-02-26T08:38:24.060Z,100475.88
2023-02-26T08:41:29.898Z,100482.53
2023-02-26T08:44:32.006Z,100472.06
2023-02-26T08:47:42.358Z,100474.50
2023-02-26T08:50:51.084Z,100499.88
2023-02-26T08:53:53.747Z,100494.13
2023-02-26T08:56:57.808Z,100493.72
2023-02-26T08:59:59.532Z,100508.22
2023-02-26T09:03:01.656Z,100494.59
2023-02-26T09:06:04.889Z,100516.94
2023-02-26T09:09:06.908Z,100506.06
2023-02-26T09:12:10.157Z,100512.41
2023-02-26T09:15:12.638Z,100513.56
2023-02-26T09:18:18.365Z,100511.28
2023-02-26T09:21:20.197Z,100514.19
2023-02-26T09:24:22.112Z,100528.47
2023-02-26T09:27:25.313Z,100531.25
2023-02-26T09:30:27.041Z,100519.81
2023-02-26T09:33:28.825Z,100525.91
2023-02-26T09:36:31.418Z,100543.94
2023-02-26T09:39:34.347Z,100542.69
2023-02-26T09:42:53.149Z,100533.16
2023-02-26T09:45:58.438Z,100542.38
2023-02-26T09:49:14.012Z,100545.28
2023-02-26T09:52:23.385Z,100542.50
2023-02-26T09:55:29.926Z,100548.41
2023-02-26T09:58:37.293Z,100553.25
2023-02-26T10:01:46.245Z,100554.78
2023-02-26T10:04:59.717Z,100548.91
2023-02-26T10:08:07.365Z,100563.72
2023-02-26T10:11:17.588Z,100563.78
2023-02-26T10:14:32.022Z,100564.28
2023-02-26T10:17:39.471Z,100571.16
2023-02-26T10:20:47.953Z,100569.38
2023-02-26T10:23:55.876Z,100588.69
2023-02-26T10:27:05.247Z,100595.38
2023-02-26T10:30:17.563Z,100587.94
2023-02-26T10:33:26.505Z,100586.53
2023-02-26T10:36:35.072Z,100595.94
2023-02-26T10:39:43.898Z,100587.66
2023-02-26T10:42:52.893Z,100589.59
2023-02-26T10:46:10.031Z,100604.03
2023-02-26T10:49:32.899Z,100612.16
2023-02-26T10:52:36.561Z,100611.13
2023-02-26T10:55:41.738Z,100619.09
2023-02-26T10:58:43.684Z,100605.81
2023-02-26T11:01:48.222Z,100601.44
2023-02-26T11:04:56.516Z,100606.41
2023-02-26T11:08:14.727Z,100595.22
2023-02-26T11:11:40.396Z,100595.69
2023-02-26T11:14:43.140Z,100596.16
2023-02-26T11:17:49.024Z,100604.28
2023-02-26T11:20:54.400Z,100605.63
2023-02-26T11:23:58.421Z,100603.88
2023-02-26T11:27:04.223Z,100600.44
2023-02-26T11:30:15.220Z,100605.63
2023-02-26T11:33:22.300Z,100594.13
2023-02-26T11:36:28.601Z,100610.25
2023-02-26T11:39:34.520Z,100612.00
2023-02-26T11:42:41.047Z,100609.72
2023-02-26T11:45:45.767Z,100599.34
2023-02-26T11:48:50.226Z,100605.25
2023-02-26T11:52:05.918Z,100616.63
2023-02-26T11:55:18.890Z,100614.25
2023-02-26T11:58:22.868Z,100609.56
2023-02-26T12:01:28.479Z,100609.25
2023-02-26T12:04:31.880Z,100606.81
2023-02-26T12:07:33.643Z,100608.16
2023-02-26T12:10:43.403Z,100613.72
2023-02-26T12:13:58.168Z,100602.00
2023-02-26T12:17:21.689Z,100615.97
2023-02-26T12:20:30.806Z,100618.13
2023-02-26T12:24:10.132Z,100610.41
2023-02-26T12:27:23.087Z,100615.25
2023-02-26T12:30:45.617Z,100612.47
2023-02-26T12:33:57.284Z,100619.06
2023-02-26T12:37:17.696Z,100608.22
2023-02-26T12:40:42.071Z,100612.06
2023-02-26T12:43:47.848Z,100612.69
2023-02-26T12:47:00.369Z,100614.94
2023-02-26T12:50:24.912Z,100614.22
2023-02-26T12:53:51.701Z,100616.44
2023-02-26T12:57:29.664Z,100618.56
2023-02-26T13:00:58.897Z,100619.41
2023-02-26T13:04:16.275Z,100623.00
2023-02-26T13:07:40.381Z,100619.94
2023-02-26T13:10:51.564Z,100617.47
2023-02-26T13:14:05.105Z,100616.47
2023-02-26T13:17:17.170Z,100615.63
2023-02-26T13:20:23.978Z,100611.59
2023-02-26T13:23:31.403Z,100625.50
2023-02-26T13:26:36.515Z,100618.56
2023-02-26T13:29:45.438Z,100618.84
2023-02-26T13:32:50.420Z,100626.75
2023-02-26T13:35:53.775Z,100628.72
2023-02-26T13:39:13.533Z,100637.47
2023-02-26T13:42:27.895Z,100638.22
2023-02-26T13:45:45.639Z,100639.44
2023-02-26T13:48:55.789Z,100643.50
2023-02-26T13:51:57.731Z,100643.97
2023-02-26T13:54:59.763Z,100639.13
2023-02-26T13:58:16.820Z,100641.59
2023-02-26T14:01:20.666Z,100642.78
2023-02-26T14:04:25.967Z,100650.25
2023-02-26T14:07:49.409Z,100648.50
2023-02-26T14:10:57.796Z,100649.84
2023-02-26T14:14:12.145Z,100653.28
2023-02-26T14:17:30.659Z,100655.09
2023-02-26T14:20:35.686Z,100658.06
2023-02-26T14:23:38.285Z,100665.84
2023-02-26T14:26:45.910Z,100667.88
2023-02-26T14:30:00.884Z,100667.47
2023-02-26T14:33:16.996Z,100671.00
2023-02-26T14:36:24.880Z,100679.97
2023-02-26T14:39:30.257Z,100685.16
2023-02-26T14:42:36.100Z,100675.47
2023-02-26T14:45:42.351Z,100678.31
2023-02-26T14:48:47.821Z,100682.91
2023-02-26T14:52:10.337Z,100676.56
2023-02-26T14:55:47.538Z,100683.38
2023-02-26T14:59:07.747Z,100686.56
2023-02-26T15:02:24.609Z,100685.03
2023-02-26T15:05:42.661Z,100688.94
2023-02-26T15:08:58.422Z,100678.38
2023-02-26T15:12:15.807Z,100686.41
2023-02-26T15:15:36.687Z,100689.72
2023-02-26T15:18:55.063Z,100694.72
2023-02-26T15:22:16.335Z,100688.25
2023-02-26T15:25:34.308Z,100693.16
2023-02-26T15:28:40.005Z,100704.00
2023-02-26T15:31:43.981Z,100701.31
2023-02-26T15:34:48.313Z,100698.34
2023-02-26T15:37:53.197Z,100710.78
2023-02-26T15:41:00.893Z,100716.97
2023-02-26T15:44:06.942Z,100715.31
2023-02-26T15:47:09.914Z,100718.09
2023-02-26T15:50:17.276Z,100713.19
2023-02-26T15:53:24.508Z,100715.50
2023-02-26T15:56:29.808Z,100717.13
2023-02-26T15:59:32.873Z,100726.34
2023-02-26T16:02:34.595Z,100719.09
2023-02-26T16:05:38.720Z,100719.22
2023-02-26T16:08:41.233Z,100723.63
2023-02-26T16:11:44.580Z,100723.81
2023-02-26T16:14:49.763Z,100715.84
2023-02-26T16:17:55.075Z,100723.75
2023-02-26T16:21:01.168Z,100724.38
2023-02-26T16:24:05.923Z,100724.94
2023-02-26T16:27:13.314Z,100731.88
2023-02-26T16:30:22.669Z,100735.00
2023-02-26T16:33:26.416Z,100744.59
2023-02-26T16:36:32.949Z,100746.53
2023-02-26T16:39:34.724Z,100748.53
2023-02-26T16:42:45.474Z,100740.97
2023-02-26T16:45:50.782Z,100753.59
2023-02-26T16:48:54.313Z,100759.09
2023-02-26T16:51:58.738Z,100767.13
2023-02-26T16:55:04.893Z,100769.91
2023-02-26T16:58:10.671Z,100783.91
2023-02-26T17:01:15.141Z,100789.28
2023-02-26T17:04:19.510Z,100794.28
2023-02-26T17:07:27.126Z,100790.53
2023-02-26T17:10:34.375Z,100798.22
2023-02-26T17:13:38.330Z,100805.44
2023-02-26T17:16:40.116Z,100809.00
2023-02-26T17:19:41.929Z,100812.72
2023-02-26T17:22:45.194Z,100821.00
2023-02-26T17:25:52.845Z,100819.97
2023-02-26T17:28:55.784Z,100828.06
2023-02-26T17:31:57.859Z,100834.06
2023-02-26T17:34:59.741Z,100833.84
2023-02-26T17:38:03.944Z,100844.41
2023-02-26T17:41:05.792Z,100844.63
2023-02-26T17:44:07.559Z,100850.94
2023-02-26T17:47:15.268Z,100857.06
2023-02-26T17:50:38.224Z,100863.78
2023-02-26T17:53:41.576Z,100869.91
2023-02-26T17:56:44.986Z,100877.75
2023-02-26T17:59:47.584Z,100878.03
2023-02-26T18:02:53.154Z,100888.41
2023-02-26T18:05:56.449Z,100883.81
2023-02-26T18:09:00.976Z,100887.88
2023-02-26T18:12:03.698Z,100896.25
2023-02-26T18:15:06.270Z,100898.59
2023-02-26T18:18:09.468Z,100897.94
2023-02-26T18:21:11.605Z,100905.19
2023-02-26T18:24:14.690Z,100898.53
2023-02-26T18:27:19.277Z,100904.22
2023-02-26T18:30:24.224Z,100906.81
2023-02-26T18:33:26.161Z,100907.03
2023-02-26T18:36:34.459Z,100909.13
2023-02-26T18:39:38.130Z,100908.16
2023-02-26T18:42:39.920Z,100909.00
2023-02-26T18:45:43.235Z,100916.16
2023-02-26T18:48:44.947Z,100922.91
2023-02-26T18:51:46.990Z,100924.88
2023-02-26T18:54:50.144Z,100926.91
2023-02-26T18:57:52.153Z,100937.84
2023-02-26T19:00:54.009Z,100939.47
2023-02-26T19:03:56.266Z,100943.47
2023-02-26T19:06:58.251Z,100947.09
2023-02-26T19:10:02.424Z,100948.44
2023-02-26T19:13:04.548Z,100952.78
2023-02-26T19:16:06.506Z,100952.97
2023-02-26T19:19:11.769Z,100957.63
2023-02-26T19:22:14.060Z,100961.97
2023-02-26T19:25:24.285Z,100958.28
2023-02-26T19:28:26.524Z,100957.38
2023-02-26T19:31:28.851Z,100956.72
2023-02-26T19:34:31.420Z,100965.00
2023-02-26T19:37:33.157Z,100973.31
2023-02-26T19:40:36.155Z,100977.69
2023-02-26T19:43:37.960Z,100975.63
2023-02-26T19:46:41.861Z,100975.69
2023-02-26T19:49:43.777Z,100983.50
2023-02-26T19:52:45.804Z,100983.56
2023-02-26T19:55:50.514Z,100990.41
2023-02-26T19:58:52.307Z,100992.13
2023-02-26T20:01:54.139Z,100986.44
2023-02-26T20:04:56.150Z,100989.16
2023-02-26T20:07:57.964Z,100987.72
2023-02-26T20:11:04.345Z,100987.63
2023-02-26T20:14:06.658Z,100993.31
2023-02-26T20:17:08.450Z,101000.19
2023-02-26T20:20:11.486Z,100997.38
2023-02-26T20:23:13.292Z,100994.03
2023-02-26T20:26:16.567Z,101001.13
2023-02-26T20:29:18.591Z,101000.28
2023-02-26T20:32:20.484Z,101007.00
2023-02-26T20:35:22.538Z,101013.75
2023-02-26T20:38:24.213Z,101020.47
2023-02-26T20:41:27.823Z,101020.03
2023-02-26T20:44:30.031Z,101015.09
2023-02-26T20:47:31.843Z,101018.88
2023-02-26T20:50:35.063Z,101031.03
2023-02-26T20:53:36.974Z,101034.59
2023-02-26T20:56:40.320Z,101033.84
2023-02-26T20:59:42.075Z,101028.69
2023-02-26T21:02:45.179Z,101031.50
2023-02-26T21:05:47.674Z,101029.44
2023-02-26T21:08:49.622Z,101033.19
2023-02-26T21:11:53.972Z,101032.72
2023-02-26T21:14:55.821Z,101031.81
2023-02-26T21:17:58.205Z,101025.56
2023-02-26T21:21:02.032Z,101034.94
2023-02-26T21:24:04.447Z,101032.38
2023-02-26T21:27:07.732Z,101030.28
2023-02-26T21:30:11.903Z,101038.88
2023-02-26T21:33:13.621Z,101042.59
2023-02-26T21:36:15.814Z,101034.06
2023-02-26T21:39:17.720Z,101036.41
2023-02-26T21:42:20.768Z,101039.25
2023-02-26T21:45:25.405Z,101053.28
2023-02-26T21:48:27.144Z,101048.78
2023-02-26T21:51:29.030Z,101045.25
2023-02-26T21:54:30.990Z,101044.78
2023-02-26T21:57:34.432Z,101044.28
2023-02-26T22:00:36.110Z,101053.25
2023-02-26T22:03:38.712Z,101044.72
2023-02-26T22:06:41.309Z,101041.41
2023-02-26T22:09:45.602Z,101049.38
2023-02-26T22:12:50.122Z,101039.09
2023-02-26T22:15:51.966Z,101035.88
2023-02-26T22:18:54.026Z,101028.81
2023-02-26T22:21:55.933Z,101028.81
2023-02-26T22:24:57.778Z,101031.91
2023-02-26T22:28:00.867Z,101040.88
2023-02-26T22:31:02.882Z,101042.47
2023-02-26T22:34:04.634Z,101036.16
2023-02-26T22:37:06.496Z,101041.31
2023-02-26T22:40:12.856Z,101051.16
2023-02-26T22:43:16.140Z,101044.13
2023-02-26T22:46:17.987Z,101043.69
2023-02-26T22:49:20.679Z,101053.75
2023-02-26T22:52:22.494Z,101046.72
2023-02-26T22:55:24.398Z,101044.19
2023-02-26T22:58:28.720Z,101047.66
2023-02-26T23:01:30.486Z,101045.53
2023-02-26T23:04:32.242Z,101051.19
2023-02-26T23:07:34.152Z,101044.59
2023-02-26T23:10:35.896Z,101043.41
2023-02-26T23:13:39.202Z,101053.28
2023-02-26T23:16:41.037Z,101057.28
2023-02-26T23:19:42.780Z,101058.41
2023-02-26T23:22:44.678Z,101054.19
2023-02-26T23:25:47.062Z,101055.38
2023-02-26T23:28:50.471Z,101055.56
2023-02-26T23:31:52.392Z,101058.81
2023-02-26T23:34:54.255Z,101057.69
2023-02-26T23:37:56.540Z,101056.00
2023-02-26T23:40:58.377Z,101053.50
2023-02-26T23:44:02.047Z,101057.22
2023-02-26T23:47:04.025Z,101060.53
2023-02-26T23:50:07.983Z,101057.91
2023-02-26T23:53:09.791Z,101063.03
2023-02-26T23:56:11.703Z,101063.25
2023-02-26T23:59:14.835Z,101057.59
